Time;durP1;ratioP1;P1;durP2;ratioP2;P2;SDS_P1;SDS_P2;PMS_P1;PMS_P2;Temp;Humidity;BMP_temperature;BMP_pressure;BME280_temperature;BME280_humidity;BME280_pressure;Samples;Min_cycle;Max_cycle;Signal;HPM_P1;HPM_P2
2023/06/26 05:32:28;;;;;;;;;;;;;;;18.07;100.00;99402.94;1833634;77;20168;-68
2023/06/26 05:34:55;;;;;;;;;;;;;;;18.11;100.00;99395.56;1833926;77;20127;-69
2023/06/26 05:37:23;;;;;;;;;;;;;;;18.14;100.00;99399.22;1815607;77;20136;-70
2023/06/26 05:39:50;;;;;;;;;;;;;;;18.14;100.00;99402.69;1824232;77;20109;-69
2023/06/26 05:42:17;;;;;;;;;;;;;;;18.15;100.00;99402.20;1829152;77;20126;-68
2023/06/26 05:44:44;;;;;;;;;;;;;;;18.17;100.00;99403.70;1839598;77;20163;-69
2023/06/26 05:47:10;;;;;;;;;;;;;;;18.14;100.00;99398.73;1837618;77;20164;-69
2023/06/26 05:49:37;;;;;;;;;;;;;;;18.15;100.00;99404.34;1837159;77;20153;-71
2023/06/26 05:52:05;;;;;;;;;;;;;;;18.16;100.00;99401.22;1839335;77;20123;-68
2023/06/26 05:54:32;;;;;;;;;;;;;;;18.18;100.00;99399.27;1828662;77;20651;-68
2023/06/26 05:57:00;;;;;;;;;;;;;;;18.21;100.00;99410.83;1834657;77;20138;-66
2023/06/26 05:59:26;;;;;;;;;;;;;;;18.06;100.00;99421.04;1837113;77;20142;-69
2023/06/26 06:01:54;;;;;;;;;;;;;;;17.79;100.00;99428.97;1844407;77;20087;-71
2023/06/26 06:04:21;;;;;;;;;;;;;;;17.50;100.00;99426.45;1831294;77;20168;-69
2023/06/26 06:09:19;;;;;;;;;;;;;;;16.98;100.00;99445.78;1831449;77;20189;-68
2023/06/26 06:11:46;;;;;;;;;;;;;;;16.72;100.00;99442.09;1809925;78;20133;-67
2023/06/26 06:14:15;;;;;;;;;;;;;;;16.52;100.00;99443.84;1817772;78;20109;-68
2023/06/26 06:16:42;;;;;;;;;;;;;;;16.35;100.00;99451.95;1823526;77;20159;-66
2023/06/26 06:19:11;;;;;;;;;;;;;;;16.19;100.00;99443.76;1826413;77;20140;-67
2023/06/26 06:21:38;;;;;;;;;;;;;;;16.05;100.00;99445.45;1825570;77;20130;-69
2023/06/26 06:24:06;;;;;;;;;;;;;;;15.93;100.00;99450.84;1836803;77;20149;-68
2023/06/26 06:26:35;;;;;;;;;;;;;;;15.85;100.00;99452.47;1830999;77;20150;-70
2023/06/26 06:29:01;;;;;;;;;;;;;;;15.81;100.00;99458.46;1837252;77;20140;-69
2023/06/26 06:31:29;;;;;;;;;;;;;;;15.75;100.00;99456.84;1832290;77;20411;-67
2023/06/26 06:33:56;;;;;;;;;;;;;;;15.68;100.00;99456.06;1828915;77;20425;-65
2023/06/26 06:36:25;;;;;;;;;;;;;;;15.62;100.00;99452.64;1832101;77;20185;-66
2023/06/26 06:38:55;;;;;;;;;;;;;;;15.58;100.00;99455.70;1834225;77;20169;-68
2023/06/26 06:41:28;;;;;;;;;;;;;;;15.49;100.00;99464.31;1835354;77;20103;-69
2023/06/26 06:43:54;;;;;;;;;;;;;;;15.46;100.00;99464.09;1799736;78;20154;-69
2023/06/26 06:46:21;;;;;;;;;;;;;;;15.36;100.00;99463.21;1829434;77;20657;-68
2023/06/26 06:48:48;;;;;;;;;;;;;;;15.32;100.00;99461.33;1826455;77;20158;-71
2023/06/26 06:51:14;;;;;;;;;;;;;;;15.31;100.00;99474.57;1817048;77;20094;-69
2023/06/26 06:53:41;;;;;;;;;;;;;;;15.25;100.00;99469.84;1842096;77;20194;-69
2023/06/26 06:56:11;;;;;;;;;;;;;;;15.18;100.00;99476.59;1825523;77;20227;-71
2023/06/26 06:58:42;;;;;;;;;;;;;;;15.13;100.00;99486.15;1833204;77;20161;-67
2023/06/26 07:01:07;;;;;;;;;;;;;;;15.10;100.00;99479.84;1790233;79;20141;-68
2023/06/26 07:03:34;;;;;;;;;;;;;;;15.06;100.00;99484.16;1774491;80;20100;-69
2023/06/26 07:11:04;;;;;;;;;;;;;;;14.99;100.00;99491.22;1768902;80;20173;-70
2023/06/26 07:13:32;;;;;;;;;;;;;;;15.04;100.00;99490.02;1768343;80;20202;-71
2023/06/26 07:16:00;;;;;;;;;;;;;;;15.10;100.00;99497.37;1766068;80;20211;-71
2023/06/26 07:18:32;;;;;;;;;;;;;;;15.16;100.00;99499.00;1734212;81;20102;-68
2023/06/26 07:20:59;;;;;;;;;;;;;;;15.22;100.00;99504.19;1766620;79;20231;-72
2023/06/26 07:23:26;;;;;;;;;;;;;;;15.25;100.00;99496.06;1767571;80;20191;-70
2023/06/26 07:25:53;;;;;;;;;;;;;;;15.27;100.00;99500.23;1764357;80;20136;-67
2023/06/26 07:28:19;;;;;;;;;;;;;;;15.33;100.00;99536.92;1767928;80;20167;-67
2023/06/26 07:35:52;;;;;;;;;;;;;;;15.39;100.00;99524.61;1768551;80;20109;-66
2023/06/26 07:38:19;;;;;;;;;;;;;;;15.40;100.00;99525.44;1761920;80;20134;-70
2023/06/26 07:40:47;;;;;;;;;;;;;;;15.41;100.00;99524.48;1756511;80;20473;-66
2023/06/26 07:43:14;;;;;;;;;;;;;;;15.48;100.00;99525.62;1764330;80;20450;-67
2023/06/26 07:45:41;;;;;;;;;;;;;;;15.57;100.00;99534.91;1771717;80;20155;-68
2023/06/26 11:47:15;;;;;;;;;;;;;;;19.61;100.00;99602.17;1816344;77;20419;-74
2023/06/26 11:49:45;;;;;;;;;;;;;;;19.54;100.00;99596.37;1823228;77;20159;-70
2023/06/26 11:52:22;;;;;;;;;;;;;;;19.52;100.00;99593.88;1822449;77;20195;-72
2023/06/26 11:54:50;;;;;;;;;;;;;;;19.57;100.00;99594.74;1798908;77;20099;-70
2023/06/26 11:59:50;;;;;;;;;;;;;;;19.70;100.00;99596.95;1802821;78;20421;-70
2023/06/26 12:02:16;;;;;;;;;;;;;;;19.75;100.00;99600.80;1816078;79;20086;-70
2023/06/26 12:04:43;;;;;;;;;;;;;;;19.80;100.00;99595.88;1812390;79;20110;-73
2023/06/26 12:07:10;;;;;;;;;;;;;;;19.80;100.00;99599.84;1810578;78;20136;-68
2023/06/26 12:09:40;;;;;;;;;;;;;;;19.76;100.00;99601.13;1809636;78;20122;-69
2023/06/26 12:12:08;;;;;;;;;;;;;;;19.63;100.00;99605.98;1796949;79;20146;-70
2023/06/26 12:14:35;;;;;;;;;;;;;;;19.42;100.00;99601.52;1813602;78;20148;-69
2023/06/26 12:17:08;;;;;;;;;;;;;;;19.12;100.00;99599.63;1808909;77;20170;-70
2023/06/26 12:19:37;;;;;;;;;;;;;;;18.86;100.00;99590.29;1809738;78;20139;-72
2023/06/26 12:22:07;;;;;;;;;;;;;;;18.64;100.00;99595.52;1820070;77;20199;-72
2023/06/26 12:24:36;;;;;;;;;;;;;;;18.53;100.00;99602.27;1812293;78;20120;-70
2023/06/26 12:27:05;;;;;;;;;;;;;;;18.46;100.00;99594.61;1804937;78;20117;-70
2023/06/26 12:29:33;;;;;;;;;;;;;;;18.43;100.00;99597.53;1814535;77;20101;-68
2023/06/26 12:31:59;;;;;;;;;;;;;;;18.46;100.00;99589.82;1815910;77;20135;-72
2023/06/26 12:34:28;;;;;;;;;;;;;;;18.55;100.00;99592.90;1804140;78;20099;-73
2023/06/26 12:37:01;;;;;;;;;;;;;;;18.64;100.00;99586.28;1819282;77;20125;-67
2023/06/26 12:39:28;;;;;;;;;;;;;;;18.76;100.00;99589.55;1819403;77;20151;-70
2023/06/26 12:41:57;;;;;;;;;;;;;;;18.84;100.00;99579.05;1807675;77;20145;-72
2023/06/26 12:47:03;;;;;;;;;;;;;;;18.97;100.00;99590.08;1814173;77;20500;-72
2023/06/26 12:49:32;;;;;;;;;;;;;;;19.06;100.00;99588.34;1820620;77;20092;-71
2023/06/26 12:51:59;;;;;;;;;;;;;;;19.17;100.00;99589.45;1810101;78;20464;-71
2023/06/26 12:54:26;;;;;;;;;;;;;;;19.39;100.00;99582.02;1809198;77;21112;-71
2023/06/26 12:56:52;;;;;;;;;;;;;;;19.60;100.00;99575.91;1811272;77;20092;-72
2023/06/26 12:59:20;;;;;;;;;;;;;;;19.74;100.00;99577.17;1818259;77;20108;-72
2023/06/26 13:01:47;;;;;;;;;;;;;;;19.84;100.00;99581.86;1816081;77;20429;-72
2023/06/26 13:42:18;;;;;;;;;;;;;;;19.18;100.00;99583.68;1804804;77;20371;-71
2023/06/26 13:47:17;;;;;;;;;;;;;;;19.39;100.00;99585.48;1801397;77;20115;-68
2023/06/26 13:49:44;;;;;;;;;;;;;;;19.40;100.00;99573.11;1810068;77;20135;-69
2023/06/26 13:52:11;;;;;;;;;;;;;;;19.35;100.00;99585.45;1812687;77;20272;-69
2023/06/26 13:54:39;;;;;;;;;;;;;;;19.29;100.00;99572.86;1811869;77;20139;-72
2023/06/26 13:57:10;;;;;;;;;;;;;;;19.20;100.00;99569.81;1794436;79;20132;-70
2023/06/26 13:59:39;;;;;;;;;;;;;;;19.14;100.00;99577.05;1790314;79;20132;-68
